Time;durP1;ratioP1;P1;durP2;ratioP2;P2;SDS_P1;SDS_P2;PMS_P1;PMS_P2;Temp;Humidity;BMP_temperature;BMP_pressure;BME280_temperature;BME280_humidity;BME280_pressure;Samples;Min_cycle;Max_cycle;Signal;HPM_P1;HPM_P2
2021/10/07 00:01:28;;;;;;;;;6.50;4.75;;;;;13.06;79.89;102259.63;5080947;27;45427;-62
2021/10/07 00:03:53;;;;;;;;;11.00;5.50;;;;;13.00;80.26;102257.09;5079941;27;45999;-61
2021/10/07 00:06:19;;;;;;;;;7.00;6.00;;;;;12.95;80.70;102265.88;5068969;27;45215;-61
2021/10/07 00:08:44;;;;;;;;;9.25;4.50;;;;;12.89;81.05;102269.44;5079203;28;45315;-61
2021/10/07 00:11:12;;;;;;;;;4.75;3.75;;;;;12.88;81.14;102265.09;5080780;27;45433;-61
2021/10/07 00:13:39;;;;;;;;;5.50;4.00;;;;;12.85;81.54;102272.09;5080265;27;46305;-61
2021/10/07 00:16:04;;;;;;;;;7.50;5.25;;;;;12.83;81.33;102272.13;5080470;27;45346;-61
2021/10/07 00:18:36;;;;;;;;;12.00;4.75;;;;;12.83;81.37;102274.72;5068705;27;45480;-61
2021/10/07 00:21:02;;;;;;;;;5.00;3.00;;;;;12.82;81.58;102278.22;5080109;28;46090;-61
2021/10/07 00:23:28;;;;;;;;;5.00;5.00;;;;;12.78;81.69;102274.75;5080164;27;45190;-61
2021/10/07 00:25:53;;;;;;;;;6.00;5.75;;;;;12.78;81.60;102279.13;5080314;27;45337;-61
2021/10/07 00:28:19;;;;;;;;;5.50;5.00;;;;;12.79;81.70;102278.25;5080337;27;45407;-61
2021/10/07 00:30:45;;;;;;;;;5.00;4.50;;;;;12.75;82.28;102271.34;5080213;27;45277;-61
2021/10/07 00:36:10;;;;;;;;;6.25;4.00;;;;;12.70;82.45;102279.22;5070187;27;45695;-61
2021/10/07 00:41:19;;;;;;;;;3.00;2.50;;;;;12.65;83.31;102283.63;5080190;28;45445;-61
2021/10/07 00:43:44;;;;;;;;;5.50;3.50;;;;;12.63;83.13;102282.78;5080036;27;45972;-63
2021/10/07 00:46:10;;;;;;;;;5.25;4.00;;;;;12.62;83.13;102285.41;5078561;27;45449;-63
2021/10/07 00:48:35;;;;;;;;;4.50;4.50;;;;;12.58;83.14;102281.09;5080220;27;45274;-63
2021/10/07 00:51:01;;;;;;;;;6.00;4.00;;;;;12.59;83.12;102285.44;5079382;27;45226;-63
2021/10/07 00:53:26;;;;;;;;;4.25;3.00;;;;;12.54;84.32;102287.22;5079741;27;45412;-63
2021/10/07 00:55:51;;;;;;;;;8.75;5.00;;;;;12.51;83.36;102287.28;5079781;27;45231;-63
2021/10/07 00:58:17;;;;;;;;;9.00;6.00;;;;;12.47;84.25;102287.31;5080101;27;45489;-63
2021/10/07 01:00:43;;;;;;;;;5.00;3.25;;;;;12.49;83.48;102288.16;5065899;28;45384;-62
2021/10/07 01:03:09;;;;;;;;;6.00;4.50;;;;;12.52;83.54;102286.38;5079720;27;45464;-62
2021/10/07 01:05:35;;;;;;;;;3.75;3.75;;;;;12.53;83.98;102285.50;5071150;27;45559;-63
2021/10/07 01:08:01;;;;;;;;;4.75;4.00;;;;;12.50;83.58;102281.19;5068126;28;45636;-63
2021/10/07 01:10:26;;;;;;;;;4.25;3.75;;;;;12.51;83.52;102284.66;5077351;27;45625;-63
2021/10/07 01:12:52;;;;;;;;;4.75;4.75;;;;;12.49;84.01;102288.16;5077561;27;46214;-63
2021/10/07 01:15:18;;;;;;;;;5.00;3.25;;;;;12.46;84.16;102275.16;5079449;28;45449;-63
2021/10/07 01:17:44;;;;;;;;;5.50;4.50;;;;;12.44;83.69;102281.25;5070947;27;45374;-64
2021/10/07 01:20:12;;;;;;;;;5.00;5.00;;;;;12.40;83.92;102277.78;5079292;28;45515;-64
2021/10/07 01:22:37;;;;;;;;;4.25;4.00;;;;;12.39;83.99;102280.44;5081075;27;46199;-64
2021/10/07 01:25:04;;;;;;;;;5.25;4.00;;;;;12.39;84.14;102283.91;5081211;27;45322;-64
2021/10/07 01:27:31;;;;;;;;;7.75;6.00;;;;;12.38;84.30;102279.56;5081943;27;45350;-63
2021/10/07 01:30:04;;;;;;;;;4.75;4.75;;;;;12.37;84.34;102283.06;5080830;28;45434;-64
2021/10/07 01:32:34;;;;;;;;;4.50;3.50;;;;;12.36;84.32;102277.84;5082665;27;45471;-63
2021/10/07 01:34:59;;;;;;;;;6.75;5.00;;;;;12.33;84.62;102281.38;5083059;27;45674;-64
2021/10/07 01:37:25;;;;;;;;;10.75;10.75;;;;;12.35;84.54;102268.31;5082865;27;45249;-64
2021/10/07 01:39:51;;;;;;;;;9.50;7.25;;;;;12.35;84.48;102282.19;5083063;27;45250;-64
2021/10/07 01:42:16;;;;;;;;;10.50;6.75;;;;;12.34;84.69;102279.63;5082865;27;45506;-63
2021/10/07 01:44:41;;;;;;;;;8.25;8.25;;;;;12.35;85.66;102282.19;5082138;27;45187;-63
2021/10/07 01:47:07;;;;;;;;;6.50;5.00;;;;;12.34;85.11;102282.22;5082460;27;45216;-62
2021/10/07 01:49:32;;;;;;;;;4.25;4.25;;;;;12.30;85.17;102275.31;5082872;27;45229;-63
2021/10/07 01:51:58;;;;;;;;;8.25;3.75;;;;;12.32;85.40;102278.78;5082137;28;45361;-62
2021/10/07 01:54:23;;;;;;;;;5.50;5.50;;;;;12.31;85.20;102270.09;5082346;27;45486;-62
2021/10/07 01:56:49;;;;;;;;;4.00;4.00;;;;;12.34;85.13;102277.88;5082998;27;45290;-63
2021/10/07 01:59:16;;;;;;;;;7.75;4.75;;;;;12.33;85.13;102276.16;5075802;28;45323;-63
2021/10/07 02:01:41;;;;;;;;;3.00;3.00;;;;;12.33;85.77;102283.97;5075403;28;46198;-63
2021/10/07 02:04:06;;;;;;;;;5.50;4.00;;;;;12.29;85.66;102277.06;5082512;27;45452;-63
2021/10/07 02:06:36;;;;;;;;;6.00;3.50;;;;;12.24;85.96;102273.66;5069091;27;45417;-64
2021/10/07 02:09:01;;;;;;;;;9.00;6.00;;;;;12.26;87.17;102274.50;5076747;28;45290;-63
2021/10/07 02:11:27;;;;;;;;;9.50;4.75;;;;;12.25;86.01;102280.59;5068755;27;46138;-63
2021/10/07 02:13:52;;;;;;;;;5.00;5.00;;;;;12.22;85.93;102270.19;5082695;27;45269;-64
2021/10/07 02:16:17;;;;;;;;;5.75;3.00;;;;;12.21;86.01;102267.56;5082316;27;45231;-64
2021/10/07 02:18:43;;;;;;;;;6.25;4.50;;;;;12.24;86.30;102270.19;5071159;27;45347;-64
2021/10/07 02:21:08;;;;;;;;;9.75;4.00;;;;;12.22;86.07;102270.19;5081775;27;45329;-64
2021/10/07 02:23:33;;;;;;;;;4.00;4.00;;;;;12.19;86.34;102270.19;5081043;28;45364;-64
2021/10/07 02:25:59;;;;;;;;;5.00;4.00;;;;;12.17;86.78;102259.78;5080299;28;45487;-64
2021/10/07 02:28:25;;;;;;;;;8.75;4.00;;;;;12.13;86.76;102260.69;5082350;27;45314;-63
2021/10/07 02:30:50;;;;;;;;;6.00;4.50;;;;;12.16;86.66;102262.41;5082019;27;46398;-64
2021/10/07 02:33:16;;;;;;;;;3.00;3.00;;;;;12.12;87.35;102258.13;5082269;28;45297;-64
2021/10/07 02:35:41;;;;;;;;;3.50;3.00;;;;;12.17;86.70;102261.53;5080310;28;45394;-64
2021/10/07 02:38:07;;;;;;;;;3.75;3.75;;;;;12.18;87.38;102265.88;5082138;28;45317;-64
2021/10/07 02:40:33;;;;;;;;;3.50;3.00;;;;;12.13;86.67;102252.03;5081771;27;46388;-65
2021/10/07 02:42:59;;;;;;;;;4.50;4.25;;;;;12.17;86.42;102261.53;5082213;27;45211;-63
2021/10/07 02:45:25;;;;;;;;;4.75;4.50;;;;;12.17;85.93;102257.19;5081184;27;45292;-64
2021/10/07 02:47:53;;;;;;;;;8.50;4.00;;;;;12.14;86.78;102265.03;5081167;28;45414;-64
2021/10/07 02:50:22;;;;;;;;;5.00;5.00;;;;;12.11;86.94;102267.69;5081152;27;46455;-64
2021/10/07 02:52:47;;;;;;;;;3.50;3.50;;;;;12.11;86.52;102272.03;5081747;27;45787;-64
2021/10/07 02:55:14;;;;;;;;;6.00;5.00;;;;;12.06;86.86;102260.78;5081573;27;45446;-64
2021/10/07 02:57:41;;;;;;;;;4.00;4.00;;;;;12.10;86.48;102259.88;5081859;28;45396;-63
2021/10/07 03:00:08;;;;;;;;;8.00;5.75;;;;;12.08;86.38;102265.09;5068141;27;45255;-63
2021/10/07 03:02:33;;;;;;;;;9.25;5.25;;;;;12.03;88.57;102266.03;5068329;28;45472;-61
2021/10/07 03:04:58;;;;;;;;;8.00;5.25;;;;;11.98;87.89;102265.19;5080848;27;45980;-61
2021/10/07 03:07:24;;;;;;;;;8.00;4.50;;;;;11.95;87.73;102260.88;5067819;28;45251;-61
2021/10/07 03:09:49;;;;;;;;;9.25;5.00;;;;;11.94;87.80;102263.50;5081397;27;45437;-60
2021/10/07 03:12:15;;;;;;;;;7.25;5.00;;;;;11.93;87.83;102266.97;5081645;27;45281;-61
2021/10/07 03:14:42;;;;;;;;;7.00;5.00;;;;;11.92;88.18;102273.06;5081391;28;45363;-61
2021/10/07 03:17:11;;;;;;;;;9.00;7.00;;;;;11.88;88.21;102265.28;5076173;27;45259;-60
2021/10/07 03:19:36;;;;;;;;;9.25;6.25;;;;;11.83;88.59;102274.88;5073057;28;47087;-61
2021/10/07 03:22:03;;;;;;;;;6.75;4.50;;;;;11.82;88.74;102275.75;5081229;27;45227;-60
2021/10/07 03:24:28;;;;;;;;;6.75;4.00;;;;;11.76;88.90;102267.94;5081295;27;45338;-60
2021/10/07 03:26:54;;;;;;;;;8.50;4.00;;;;;11.73;88.93;102273.19;5081319;27;45493;-60
2021/10/07 03:29:19;;;;;;;;;5.00;3.00;;;;;11.69;89.91;102279.28;5080958;27;46034;-61
2021/10/07 03:31:45;;;;;;;;;7.75;5.00;;;;;11.64;90.26;102282.81;5080911;27;45451;-61
2021/10/07 03:34:10;;;;;;;;;7.25;4.75;;;;;11.61;90.17;102275.00;5081028;27;45291;-60
2021/10/07 03:36:36;;;;;;;;;9.00;4.50;;;;;11.59;90.58;102283.69;5080243;27;45464;-60
2021/10/07 03:39:01;;;;;;;;;7.00;5.75;;;;;11.60;90.30;102276.75;5080372;27;46253;-60
2021/10/07 03:41:26;;;;;;;;;7.00;5.00;;;;;11.58;90.45;102281.97;5081219;27;45346;-60
2021/10/07 03:43:52;;;;;;;;;6.25;4.50;;;;;11.59;90.46;102288.03;5080783;27;45426;-60
2021/10/07 03:46:17;;;;;;;;;2.25;2.25;;;;;11.58;90.81;102287.16;5079382;27;45339;-61
2021/10/07 03:48:46;;;;;;;;;5.00;4.25;;;;;11.57;90.53;102293.25;5080836;27;46025;-64
2021/10/07 03:51:11;;;;;;;;;8.25;5.25;;;;;11.58;90.07;102294.13;5079814;28;45422;-63
2021/10/07 03:53:37;;;;;;;;;5.75;5.00;;;;;11.60;90.64;102289.75;5080696;27;45288;-63
2021/10/07 03:56:03;;;;;;;;;6.75;5.00;;;;;11.62;90.11;102292.38;5080749;27;45267;-62
2021/10/07 03:58:29;;;;;;;;;7.00;5.00;;;;;11.64;90.39;102293.22;5080448;27;46345;-62
2021/10/07 04:00:54;;;;;;;;;5.00;5.00;;;;;11.63;89.87;102292.38;5066907;28;45365;-61
2021/10/07 04:03:20;;;;;;;;;9.00;4.25;;;;;11.64;90.33;102295.84;5080596;28;45304;-62
2021/10/07 04:05:47;;;;;;;;;8.25;5.50;;;;;11.58;92.50;102301.91;5073259;27;45244;-62
2021/10/07 04:08:12;;;;;;;;;8.00;7.75;;;;;11.51;92.38;102297.63;5073454;28;46361;-59
2021/10/07 04:10:38;;;;;;;;;10.00;9.75;;;;;11.45;93.14;102301.16;5080586;27;45294;-61
2021/10/07 04:13:03;;;;;;;;;7.00;7.00;;;;;11.40;92.36;102299.44;5080630;27;45608;-62
2021/10/07 04:15:29;;;;;;;;;10.75;8.50;;;;;11.37;92.59;102304.66;5080101;27;45547;-63
2021/10/07 04:17:54;;;;;;;;;11.75;7.00;;;;;11.36;92.25;102308.13;5068823;27;45247;-62
2021/10/07 04:20:19;;;;;;;;;10.25;8.75;;;;;11.37;91.95;102309.88;5079548;28;45200;-63
2021/10/07 04:22:45;;;;;;;;;15.00;9.00;;;;;11.38;92.09;102307.25;5080485;28;45254;-63
2021/10/07 04:25:10;;;;;;;;;8.25;7.25;;;;;11.41;91.58;102308.97;5080414;27;45371;-63
2021/10/07 04:27:36;;;;;;;;;8.00;5.00;;;;;11.41;92.05;102306.38;5080263;27;46090;-64
2021/10/07 04:30:04;;;;;;;;;10.50;8.00;;;;;11.39;92.21;102308.97;5080230;27;45371;-63
2021/10/07 04:32:29;;;;;;;;;10.75;8.75;;;;;11.34;91.75;102302.94;5080057;27;45314;-64
2021/10/07 04:34:55;;;;;;;;;10.75;9.00;;;;;11.39;92.11;102300.31;5080005;27;45499;-63
2021/10/07 04:37:20;;;;;;;;;10.00;8.75;;;;;11.36;92.04;102302.94;5079853;27;45386;-63
2021/10/07 04:39:45;;;;;;;;;7.50;5.00;;;;;11.37;92.15;102299.47;5080112;27;45445;-63
2021/10/07 04:42:11;;;;;;;;;8.00;7.50;;;;;11.37;91.98;102299.47;5080074;27;45283;-63
2021/10/07 04:44:36;;;;;;;;;10.00;8.75;;;;;11.33;92.38;102310.75;5079330;27;45353;-64
2021/10/07 04:47:02;;;;;;;;;11.50;10.75;;;;;11.29;92.92;102304.72;5079517;27;46137;-65
2021/10/07 04:49:27;;;;;;;;;8.25;8.25;;;;;11.30;92.27;102305.56;5078167;28;45426;-64
2021/10/07 04:51:52;;;;;;;;;12.50;7.75;;;;;11.30;93.16;102306.44;5079632;27;45330;-64
2021/10/07 04:54:18;;;;;;;;;11.00;10.00;;;;;11.26;92.66;102302.13;5079184;27;45253;-64
2021/10/07 04:56:43;;;;;;;;;18.50;9.50;;;;;11.26;93.03;102296.94;5074936;28;47207;-66
2021/10/07 04:59:09;;;;;;;;;9.75;9.00;;;;;11.23;93.17;102291.75;5078486;28;45375;-65
2021/10/07 05:01:34;;;;;;;;;9.25;8.00;;;;;11.23;93.53;102302.16;5079661;28;45263;-65
2021/10/07 05:04:00;;;;;;;;;15.25;9.25;;;;;11.21;93.05;102299.56;5078215;27;45293;-64
2021/10/07 05:06:25;;;;;;;;;14.00;9.00;;;;;11.19;92.80;102298.69;5066100;27;45364;-64
2021/10/07 05:08:51;;;;;;;;;10.00;8.75;;;;;11.26;93.22;102312.53;5076793;28;45410;-63
2021/10/07 05:11:16;;;;;;;;;24.25;9.75;;;;;11.27;92.42;102311.66;5078333;28;45153;-64
2021/10/07 05:13:42;;;;;;;;;11.00;9.25;;;;;11.28;92.70;102313.41;5078721;27;45466;-65
2021/10/07 05:16:07;;;;;;;;;14.50;10.25;;;;;11.30;92.86;102319.47;5077956;27;45335;-64
2021/10/07 05:18:33;;;;;;;;;16.00;11.75;;;;;11.32;92.83;102322.03;5064427;27;45504;-60
2021/10/07 05:20:58;;;;;;;;;12.75;9.75;;;;;11.33;92.51;102326.38;5077740;27;45952;-60
2021/10/07 05:23:23;;;;;;;;;10.25;9.00;;;;;11.33;92.74;102326.38;5078556;27;45572;-62
2021/10/07 05:25:49;;;;;;;;;9.50;9.25;;;;;11.31;92.33;102336.81;5078507;27;46040;-66
2021/10/07 05:28:14;;;;;;;;;15.25;11.00;;;;;11.31;92.09;102342.00;5076651;27;45480;-59
2021/10/07 05:30:40;;;;;;;;;12.00;8.75;;;;;11.32;92.32;102342.88;5078124;27;45661;-61
2021/10/07 05:33:05;;;;;;;;;11.00;10.25;;;;;11.32;91.53;102346.34;5072614;28;45342;-59
2021/10/07 05:35:31;;;;;;;;;14.75;9.00;;;;;11.31;92.35;102338.53;5078648;27;45437;-68
2021/10/07 05:37:56;;;;;;;;;12.00;10.50;;;;;11.28;92.35;102342.88;5078336;27;45339;-64
2021/10/07 05:40:22;;;;;;;;;13.75;10.25;;;;;11.25;92.45;102340.31;5079113;27;45700;-62
2021/10/07 05:42:47;;;;;;;;;10.50;9.00;;;;;11.25;92.48;102344.66;5078755;27;45330;-63
2021/10/07 05:45:12;;;;;;;;;11.00;8.50;;;;;11.24;92.38;102343.78;5078031;27;45425;-69
2021/10/07 05:47:39;;;;;;;;;15.00;11.00;;;;;11.25;92.65;102342.91;5074228;28;45524;-62
2021/10/07 05:50:06;;;;;;;;;9.50;8.75;;;;;11.26;92.59;102347.25;5068663;28;45365;-66
2021/10/07 05:52:32;;;;;;;;;16.25;12.50;;;;;11.26;92.51;102348.97;5078642;27;45215;-65
2021/10/07 05:54:57;;;;;;;;;20.50;17.75;;;;;11.26;92.49;102342.03;5078386;27;45326;-70
2021/10/07 05:57:24;;;;;;;;;20.00;15.50;;;;;11.25;92.54;102345.50;5078789;27;45270;-65
2021/10/07 05:59:50;;;;;;;;;19.50;12.00;;;;;11.27;92.11;102350.72;5067717;27;45313;-64
2021/10/07 06:02:15;;;;;;;;;18.00;12.50;;;;;11.27;92.43;102356.78;5079509;28;45291;-64
2021/10/07 06:04:41;;;;;;;;;18.75;14.75;;;;;11.22;92.19;102344.66;5081821;27;46280;-78
2021/10/07 06:07:06;;;;;;;;;15.00;9.25;;;;;11.30;92.36;102352.44;5067046;28;45453;-64
2021/10/07 06:09:31;;;;;;;;;17.25;16.75;;;;;11.30;92.85;102352.44;5082156;27;45480;-64
2021/10/07 06:11:57;;;;;;;;;16.00;13.75;;;;;11.31;92.44;102356.75;5081782;27;45600;-63
2021/10/07 06:14:23;;;;;;;;;16.25;11.25;;;;;11.30;93.75;102360.22;5080708;28;45998;-65
2021/10/07 06:16:53;;;;;;;;;19.00;13.50;;;;;11.27;93.27;102358.50;5079013;27;45789;-66
2021/10/07 06:19:20;;;;;;;;;10.00;8.75;;;;;11.27;92.76;102367.19;5073462;28;45266;-66
2021/10/07 06:21:45;;;;;;;;;14.25;12.50;;;;;11.28;93.42;102370.66;5079737;28;45382;-66
2021/10/07 06:24:10;;;;;;;;;22.75;15.25;;;;;11.26;93.51;102365.47;5081682;27;45333;-64
2021/10/07 06:26:37;;;;;;;;;13.50;10.00;;;;;11.26;93.87;102368.06;5081405;27;45314;-64
2021/10/07 06:29:02;;;;;;;;;17.25;11.00;;;;;11.30;92.92;102371.50;5082157;27;45297;-65
2021/10/07 06:31:27;;;;;;;;;11.25;11.25;;;;;11.34;93.29;102378.44;5081445;27;45272;-64
2021/10/07 06:33:53;;;;;;;;;17.25;15.50;;;;;11.41;92.96;102371.44;5080284;27;45505;-63
2021/10/07 06:36:18;;;;;;;;;18.50;15.00;;;;;11.48;92.91;102365.34;5079907;27;45329;-63
2021/10/07 06:38:43;;;;;;;;;17.75;14.00;;;;;11.53;92.79;102361.84;5080806;27;45402;-64
2021/10/07 06:41:09;;;;;;;;;19.50;10.25;;;;;11.62;92.39;102360.09;5081584;27;45572;-63
2021/10/07 06:43:34;;;;;;;;;14.50;10.75;;;;;11.68;92.27;102362.63;5081525;27;46079;-64
2021/10/07 06:46:00;;;;;;;;;11.25;10.75;;;;;11.72;92.10;102362.59;5079789;27;45286;-64
2021/10/07 06:48:25;;;;;;;;;12.75;12.50;;;;;11.75;91.62;102362.59;5081777;27;45527;-65
2021/10/07 06:50:51;;;;;;;;;19.50;17.25;;;;;11.82;91.76;102363.47;5080446;27;45199;-64
2021/10/07 06:53:18;;;;;;;;;19.75;18.25;;;;;11.90;91.57;102372.06;5081015;27;46134;-64
2021/10/07 06:55:43;;;;;;;;;32.25;22.50;;;;;11.94;91.95;102370.31;5080882;27;45692;-64
2021/10/07 06:58:08;;;;;;;;;30.75;23.00;;;;;11.99;91.45;102378.94;5081623;27;45340;-65
2021/10/07 07:00:35;;;;;;;;;21.75;20.25;;;;;12.08;91.37;102378.91;5080798;27;45385;-64
2021/10/07 07:03:01;;;;;;;;;20.25;13.25;;;;;12.19;91.27;102380.53;5080969;27;46116;-64
2021/10/07 07:05:26;;;;;;;;;22.25;15.00;;;;;12.28;90.45;102382.22;5076238;27;45454;-64
2021/10/07 07:07:52;;;;;;;;;25.25;15.75;;;;;12.34;90.18;102381.28;5079649;28;45370;-65
2021/10/07 07:10:18;;;;;;;;;18.00;15.25;;;;;12.43;89.92;102392.53;5080551;27;45284;-64
2021/10/07 07:12:45;;;;;;;;;18.00;16.00;;;;;12.54;90.01;102387.19;5080909;28;46175;-64
2021/10/07 07:15:11;;;;;;;;;21.75;17.75;;;;;12.65;89.45;102395.78;5080512;27;45750;-64
2021/10/07 07:17:36;;;;;;;;;19.75;17.50;;;;;12.75;88.82;102396.56;5071560;27;45353;-64
2021/10/07 07:20:03;;;;;;;;;22.25;15.75;;;;;12.82;88.59;102403.47;5077346;28;45266;-63
2021/10/07 07:22:28;;;;;;;;;18.25;15.25;;;;;12.92;88.65;102399.00;5080632;27;45208;-63
2021/10/07 07:24:53;;;;;;;;;17.25;15.00;;;;;12.99;87.63;102400.66;5080326;27;45342;-63
2021/10/07 07:27:19;;;;;;;;;18.50;15.50;;;;;12.99;87.59;102401.50;5080997;27;45337;-64
2021/10/07 07:29:44;;;;;;;;;22.75;20.00;;;;;13.04;87.90;102404.97;5079915;27;45843;-64
2021/10/07 07:32:10;;;;;;;;;21.50;19.25;;;;;13.13;87.20;102398.75;5080805;27;45259;-65
2021/10/07 07:34:35;;;;;;;;;16.00;13.50;;;;;13.19;87.02;102403.06;5079229;28;45570;-65
2021/10/07 07:37:01;;;;;;;;;20.00;14.50;;;;;13.22;87.19;102398.69;5080376;28;45308;-64
2021/10/07 07:39:26;;;;;;;;;19.75;16.00;;;;;13.31;86.50;102395.09;5080505;27;45353;-63
2021/10/07 07:41:52;;;;;;;;;19.50;15.00;;;;;13.44;86.73;102396.69;5080469;27;45364;-65
2021/10/07 07:44:18;;;;;;;;;18.25;15.00;;;;;13.59;86.21;102393.84;5079348;27;45332;-65
2021/10/07 07:46:44;;;;;;;;;20.50;16.75;;;;;13.70;85.86;102393.72;5079903;27;45406;-64
2021/10/07 07:49:09;;;;;;;;;15.50;11.50;;;;;13.83;85.44;102400.50;5080483;27;45678;-64
2021/10/07 07:51:35;;;;;;;;;23.50;20.50;;;;;13.96;85.54;102404.63;5079660;27;45934;-65
2021/10/07 07:54:01;;;;;;;;;49.25;28.75;;;;;14.17;85.50;102403.44;5079230;27;45376;-65
2021/10/07 07:56:26;;;;;;;;;20.00;15.00;;;;;14.38;84.59;102410.06;5080196;27;45486;-65
2021/10/07 07:58:53;;;;;;;;;23.50;14.75;;;;;14.53;84.04;102411.63;5077376;27;45255;-65
2021/10/07 08:01:19;;;;;;;;;22.00;14.75;;;;;14.64;82.07;102407.06;5069578;28;45396;-65
2021/10/07 08:03:44;;;;;;;;;18.25;14.50;;;;;14.69;82.35;102407.84;5080169;28;45324;-65
2021/10/07 08:06:10;;;;;;;;;16.00;14.75;;;;;14.75;82.03;102409.47;5069837;27;45297;-65
2021/10/07 08:08:35;;;;;;;;;15.25;14.25;;;;;14.82;81.83;102411.97;5078719;28;45434;-65
2021/10/07 08:11:01;;;;;;;;;17.75;16.50;;;;;14.81;81.09;102412.84;5080163;27;46113;-64
2021/10/07 08:13:26;;;;;;;;;13.25;11.75;;;;;14.80;81.26;102416.34;5079496;27;45320;-65
2021/10/07 08:15:51;;;;;;;;;18.00;15.50;;;;;14.86;81.86;102421.50;5079850;27;45436;-65
2021/10/07 08:18:20;;;;;;;;;25.50;18.50;;;;;15.00;81.18;102421.22;5067803;27;45301;-66
2021/10/07 08:20:46;;;;;;;;;26.00;19.00;;;;;15.15;80.92;102430.53;5079053;27;46842;-66
2021/10/07 08:23:13;;;;;;;;;31.25;18.25;;;;;15.31;79.99;102434.59;5078741;27;45383;-65
2021/10/07 08:25:41;;;;;;;;;20.25;18.25;;;;;15.45;80.32;102419.47;5079866;28;45749;-65
2021/10/07 08:28:07;;;;;;;;;23.25;18.50;;;;;15.64;79.81;102424.34;5079188;27;45620;-65
2021/10/07 08:30:33;;;;;;;;;27.75;19.25;;;;;15.82;79.27;102429.19;5079426;27;46317;-65
2021/10/07 08:32:58;;;;;;;;;21.25;18.00;;;;;15.99;78.83;102427.00;5079109;27;46314;-65
2021/10/07 08:35:24;;;;;;;;;19.25;17.50;;;;;16.16;78.11;102431.00;5079536;27;45230;-65
2021/10/07 08:37:49;;;;;;;;;22.50;17.00;;;;;16.24;77.82;102429.09;5079673;27;45509;-65
2021/10/07 08:40:15;;;;;;;;;25.25;16.50;;;;;16.33;77.19;102427.09;5079695;27;45973;-65
2021/10/07 08:42:42;;;;;;;;;25.50;18.25;;;;;16.33;76.64;102431.47;5079392;27;45752;-65
2021/10/07 08:45:09;;;;;;;;;20.25;18.75;;;;;16.27;76.49;102429.00;5078564;27;45165;-66
2021/10/07 08:47:39;;;;;;;;;25.00;19.75;;;;;16.24;76.47;102432.56;5078480;27;45466;-65
2021/10/07 08:50:07;;;;;;;;;20.50;17.00;;;;;16.21;76.26;102430.00;5078932;27;46287;-64
2021/10/07 08:52:33;;;;;;;;;20.25;16.00;;;;;16.23;76.29;102427.38;5079039;27;45191;-65
2021/10/07 08:55:00;;;;;;;;;23.25;18.50;;;;;16.31;76.12;102426.25;5079248;27;45806;-66
2021/10/07 08:57:25;;;;;;;;;16.00;15.75;;;;;16.40;75.70;102418.16;5079156;27;45309;-65
2021/10/07 08:59:51;;;;;;;;;21.75;18.75;;;;;16.53;76.00;102425.72;5067985;27;45418;-65
2021/10/07 09:02:27;;;;;;;;;25.00;20.00;;;;;16.72;75.11;102429.63;5077168;28;45950;-65
2021/10/07 09:04:53;;;;;;;;;24.25;16.25;;;;;16.88;75.21;102432.72;5070910;27;45763;-65
2021/10/07 09:07:19;;;;;;;;;24.50;20.00;;;;;17.10;75.06;102433.00;5071207;27;45366;-65
2021/10/07 09:09:45;;;;;;;;;22.00;19.50;;;;;17.27;74.37;102433.41;5065376;27;45477;-65
2021/10/07 09:12:15;;;;;;;;;32.25;21.75;;;;;17.49;73.66;102433.66;5067880;27;45301;-66
2021/10/07 09:14:51;;;;;;;;;26.25;20.75;;;;;17.64;70.79;102441.09;5072338;28;45629;-66
2021/10/07 09:17:21;;;;;;;;;24.00;20.75;;;;;17.55;71.55;102436.94;5071035;28;45492;-66
2021/10/07 09:19:48;;;;;;;;;18.75;16.50;;;;;17.53;70.58;102440.53;5070424;28;46290;-65
2021/10/07 09:22:26;;;;;;;;;23.00;19.50;;;;;17.50;71.11;102435.38;5065431;28;45516;-66
2021/10/07 09:25:00;;;;;;;;;22.00;16.75;;;;;17.59;70.73;102437.72;5065549;27;45351;-66
2021/10/07 09:27:27;;;;;;;;;21.25;17.00;;;;;17.76;71.63;102432.84;5070662;27;45272;-66
2021/10/07 09:29:58;;;;;;;;;18.00;13.25;;;;;17.91;71.10;102431.50;5072398;28;45409;-67
2021/10/07 09:32:23;;;;;;;;;19.00;16.50;;;;;18.06;69.30;102427.56;5068332;28;45670;-65
2021/10/07 09:34:50;;;;;;;;;18.00;15.33;;;;;18.15;70.42;102424.63;5065605;28;45187;-65
2021/10/07 09:37:19;;;;;;;;;22.75;17.75;;;;;18.22;70.93;102410.38;5075339;28;45235;-65
2021/10/07 09:39:49;;;;;;;;;16.25;15.00;;;;;18.38;70.60;102423.84;5069222;27;46001;-65
2021/10/07 09:42:20;;;;;;;;;18.00;13.25;;;;;18.50;70.75;102418.19;5073495;28;45413;-65
2021/10/07 09:45:04;;;;;;;;;15.50;13.50;;;;;18.56;70.71;102420.59;5080457;28;45538;-67
2021/10/07 09:47:41;;;;;;;;;11.00;9.00;;;;;18.58;70.20;102416.16;5081699;27;45521;-66
2021/10/07 09:50:16;;;;;;;;;13.25;10.00;;;;;18.57;67.16;102408.31;5082191;27;47022;-66
2021/10/07 09:52:43;;;;;;;;;10.00;9.50;;;;;18.63;68.31;102418.69;5082706;28;45401;-65
2021/10/07 09:55:19;;;;;;;;;11.50;8.00;;;;;19.28;69.65;102413.69;5082210;27;45341;-67
2021/10/07 09:58:05;;;;;;;;;11.00;9.25;;;;;19.50;67.98;102416.38;5069739;28;45472;-67
2021/10/07 10:00:36;;;;;;;;;10.25;9.75;;;;;19.36;64.80;102413.38;5081853;27;45396;-66
2021/10/07 10:03:05;;;;;;;;;13.00;8.25;;;;;19.17;65.48;102405.28;5080603;27;45305;-66
2021/10/07 10:05:34;;;;;;;;;11.25;8.50;;;;;19.22;64.12;102399.84;5081196;27;45358;-67
2021/10/07 10:08:00;;;;;;;;;7.75;7.75;;;;;19.20;65.01;102409.59;5081929;27;45340;-67
2021/10/07 10:10:26;;;;;;;;;7.00;7.00;;;;;19.22;66.87;102407.75;5082310;27;46128;-66
2021/10/07 10:12:52;;;;;;;;;12.50;8.00;;;;;19.35;66.19;102415.16;5081635;27;45326;-67
2021/10/07 10:15:20;;;;;;;;;7.75;7.75;;;;;19.53;66.19;102407.47;5081685;27;45172;-66
2021/10/07 10:17:46;;;;;;;;;7.00;6.00;;;;;19.78;65.66;102407.41;5071194;27;45464;-66
2021/10/07 10:20:18;;;;;;;;;6.25;4.75;;;;;19.87;64.74;102407.91;5079451;28;46108;-67
2021/10/07 10:22:49;;;;;;;;;13.25;8.25;;;;;19.91;64.53;102404.22;5081662;27;45311;-68
2021/10/07 10:25:14;;;;;;;;;18.25;14.25;;;;;19.95;63.68;102410.25;5096664;27;46581;-67
2021/10/07 10:27:59;;;;;;;;;8.75;5.75;;;;;19.89;63.50;102410.50;5081150;27;45263;-65
2021/10/07 10:30:32;;;;;;;;;8.50;6.00;;;;;19.89;61.14;102407.84;5080861;27;46259;-66
2021/10/07 10:33:00;;;;;;;;;7.75;5.00;;;;;19.90;60.29;102409.56;5080324;27;45648;-66
2021/10/07 10:35:43;;;;;;;;;7.00;6.25;;;;;20.03;62.74;102410.81;5079798;28;45333;-66
2021/10/07 10:38:11;;;;;;;;;7.25;4.00;;;;;20.21;59.35;102412.66;5081817;27;45507;-67
2021/10/07 10:40:38;;;;;;;;;8.75;5.75;;;;;20.13;61.34;102409.50;5096711;27;45330;-66
2021/10/07 10:43:18;;;;;;;;;7.75;5.75;;;;;19.93;61.29;102405.03;5081090;27;45195;-66
2021/10/07 10:45:53;;;;;;;;;10.75;6.50;;;;;19.86;60.96;102406.19;5079449;27;45298;-66
2021/10/07 10:48:49;;;;;;;;;9.25;9.25;;;;;19.88;62.07;102414.91;5081467;28;45597;-66
2021/10/07 10:51:18;;;;;;;;;7.75;7.50;;;;;19.93;61.38;102406.81;5067803;28;45348;-67
2021/10/07 10:54:11;;;;;;;;;10.00;7.75;;;;;19.97;60.37;102405.75;5080829;27;45510;-66
2021/10/07 10:56:55;;;;;;;;;11.75;6.50;;;;;19.96;60.81;102396.97;5072024;28;45436;-67
2021/10/07 10:59:23;;;;;;;;;10.00;8.25;;;;;20.05;60.86;102401.03;5068463;28;45227;-67
2021/10/07 11:02:16;;;;;;;;;9.25;6.25;;;;;20.16;61.29;102404.09;5080827;27;46443;-66
2021/10/07 11:04:47;;;;;;;;;6.25;5.75;;;;;20.24;60.66;102407.28;5081532;28;45668;-68
2021/10/07 11:07:18;;;;;;;;;7.25;5.50;;;;;20.41;61.56;102403.09;5081503;27;45535;-67
2021/10/07 11:10:04;;;;;;;;;7.50;5.50;;;;;20.53;59.97;102395.53;5079486;28;45350;-67
2021/10/07 11:12:48;;;;;;;;;7.00;6.75;;;;;20.75;61.07;102400.72;5073421;28;46230;-67
2021/10/07 11:15:15;;;;;;;;;6.75;6.75;;;;;20.70;60.20;102402.72;5095077;27;45344;-67
2021/10/07 11:17:44;;;;;;;;;11.25;5.75;;;;;20.68;59.39;102399.28;5070889;27;45380;-65
2021/10/07 11:20:20;;;;;;;;;6.25;4.25;;;;;20.71;60.32;102399.16;5072138;27;45239;-65
2021/10/07 11:23:00;;;;;;;;;8.50;4.75;;;;;20.72;59.62;102398.22;5078580;28;46213;-66